Airport View

Enter AWOS ICAO identifier for current METAR.

ex. KFNL

KUCY 240630Z AUTO 33008G15KT 10SM OVC023 M01/M05 A2997 RMK A01

24 Jan 2019 10:55

Frequency: 135.325

Phone: 731-885-9161

Other Area AWOS: KPHT - KM25 - KDYR - KHZD

TAF AMD KPAH 240806Z 2408/2506 32008KT P6SM BKN025 TEMPO 2408/2412 SCT025 FM242300 32011KT P6SM BKN030 FM250400 33011G21KT P6SM SCT080